Time;durP1;ratioP1;P1;durP2;ratioP2;P2;SDS_P1;SDS_P2;PMS_P1;PMS_P2;Temp;Humidity;BMP_temperature;BMP_pressure;BME280_temperature;BME280_humidity;BME280_pressure;Samples;Min_cycle;Max_cycle;Signal;HPM_P1;HPM_P2
2021/12/15 00:01:18;;;;;;;40.67;15.23;;;;;;;;;;5122162;27;20122;-88
2021/12/15 00:03:44;;;;;;;31.50;15.88;;;;;;;;;;5123082;27;20034;-88
2021/12/15 00:06:13;;;;;;;34.38;15.70;;;;;;;;;;5121306;27;20050;-88
2021/12/15 00:08:40;;;;;;;34.42;17.20;;;;;;;;;;5121745;27;20495;-88
2021/12/15 00:11:06;;;;;;;38.33;15.63;;;;;;;;;;5138936;27;20107;-88
2021/12/15 00:13:36;;;;;;;39.90;17.48;;;;;;;;;;5156979;27;20050;-88
2021/12/15 00:16:02;;;;;;;44.90;16.77;;;;;;;;;;5138282;27;20046;-88
2021/12/15 00:18:28;;;;;;;32.08;15.45;;;;;;;;;;5157479;27;20095;-88
2021/12/15 00:20:54;;;;;;;36.25;15.23;;;;;;;;;;5138832;27;20130;-88
2021/12/15 00:23:20;;;;;;;43.78;17.50;;;;;;;;;;5139014;27;20039;-88
2021/12/15 00:25:47;;;;;;;43.45;18.00;;;;;;;;;;5121088;27;20070;-88
2021/12/15 00:28:13;;;;;;;43.30;18.73;;;;;;;;;;5120710;27;20110;-88
2021/12/15 00:30:39;;;;;;;36.47;17.40;;;;;;;;;;5137270;27;20487;-88
2021/12/15 00:33:06;;;;;;;40.25;16.98;;;;;;;;;;5137512;27;20125;-88
2021/12/15 00:35:32;;;;;;;37.50;16.80;;;;;;;;;;5121425;27;20046;-88
2021/12/15 00:37:59;;;;;;;33.42;14.60;;;;;;;;;;5121089;27;20065;-88
2021/12/15 00:40:25;;;;;;;41.40;17.45;;;;;;;;;;5138032;27;20054;-88
2021/12/15 00:42:51;;;;;;;39.95;17.45;;;;;;;;;;5121506;27;20043;-88
2021/12/15 00:45:18;;;;;;;38.70;18.67;;;;;;;;;;5121095;27;20050;-88
2021/12/15 00:47:45;;;;;;;53.85;17.63;;;;;;;;;;5120734;27;20479;-88
2021/12/15 00:50:13;;;;;;;37.85;17.23;;;;;;;;;;5120926;27;20038;-88
2021/12/15 00:52:40;;;;;;;38.08;17.60;;;;;;;;;;5137751;27;20436;-88
2021/12/15 00:55:08;;;;;;;40.33;16.48;;;;;;;;;;5121981;27;20379;-88
2021/12/15 00:57:34;;;;;;;33.33;15.07;;;;;;;;;;5138022;27;20480;-88
2021/12/15 01:00:01;;;;;;;35.13;17.15;;;;;;;;;;5120516;27;20043;-88
2021/12/15 01:02:27;;;;;;;36.30;16.88;;;;;;;;;;5138113;27;20184;-88
2021/12/15 01:04:54;;;;;;;28.65;14.57;;;;;;;;;;5119965;27;20042;-88
2021/12/15 01:07:20;;;;;;;33.25;16.67;;;;;;;;;;5120476;27;20513;-88
2021/12/15 01:09:52;;;;;;;35.60;15.50;;;9.80;99.90;;;;;;5120569;27;20042;-88
2021/12/15 01:12:45;;;;;;;32.13;13.93;;;;;;;;;;5137672;27;20034;-88
2021/12/15 01:20:42;;;;;;;41.35;15.77;;;9.90;99.90;;;;;;5137465;27;20099;-88
2021/12/15 01:23:09;;;;;;;30.20;16.10;;;;;;;;;;5120591;27;20043;-88
2021/12/15 01:25:39;;;;;;;42.35;16.63;;;9.90;99.90;;;;;;5120086;27;20042;-88
2021/12/15 01:28:05;;;;;;;29.35;14.75;;;10.00;99.90;;;;;;5120129;27;20038;-88
2021/12/15 01:30:35;;;;;;;34.78;15.88;;;10.00;99.90;;;;;;5119670;27;20043;-89
2021/12/15 01:33:03;;;;;;;34.65;15.80;;;9.90;99.90;;;;;;5136708;27;20038;-88
2021/12/15 01:35:31;;;;;;;38.47;19.13;;;10.10;99.90;;;;;;5137417;27;20046;-88
2021/12/15 01:37:57;;;;;;;43.15;18.80;;;;;;;;;;5122050;27;20118;-88
2021/12/15 01:40:37;;;;;;;35.13;16.70;;;;;;;;;;5120741;27;20054;-89
2021/12/15 01:43:17;;;;;;;39.80;17.90;;;;;;;;;;5120864;27;20484;-89
2021/12/15 01:48:58;;;;;;;44.17;19.27;;;10.00;99.90;;;;;;5075369;28;20052;-89
2021/12/15 01:51:25;;;;;;;44.88;19.05;;;;;;;;;;5075074;28;20044;-89
2021/12/15 01:53:51;;;;;;;39.45;19.13;;;;;;;;;;5075036;28;20082;-88
2021/12/15 01:56:17;;;;;;;38.35;20.02;;;;;;;;;;5059775;28;20051;-88
2021/12/15 01:58:43;;;;;;;38.83;18.02;;;;;;;;;;5058869;28;20044;-89
2021/12/15 02:01:10;;;;;;;39.22;20.17;;;;;;;;;;5058112;28;20055;-89
2021/12/15 02:03:37;;;;;;;48.35;22.40;;;;;;;;;;5075194;28;20059;-88
2021/12/15 02:06:04;;;;;;;52.65;22.67;;;;;;;;;;5058501;28;20067;-89
2021/12/15 02:08:31;;;;;;;49.95;19.52;;;;;;;;;;5077466;28;20134;-89
2021/12/15 02:10:57;;;;;;;50.45;22.50;;;;;;;;;;5078752;28;20131;-88
2021/12/15 02:13:23;;;;;;;44.10;21.02;;;;;;;;;;5079158;28;20145;-89
2021/12/15 02:15:52;;;;;;;48.30;21.00;;;10.00;99.90;;;;;;5078207;28;20044;-88
2021/12/15 02:18:20;;;;;;;53.90;21.15;;;;;;;;;;5078940;28;20097;-88
2021/12/15 02:20:54;;;;;;;45.13;20.98;;;;;;;;;;5140192;27;20051;-89
2021/12/15 02:23:25;;;;;;;36.35;18.80;;;;;;;;;;5139942;27;20506;-88
2021/12/15 02:25:51;;;;;;;39.25;20.85;;;;;;;;;;5139761;27;20087;-88
2021/12/15 02:28:17;;;;;;;35.08;19.70;;;;;;;;;;5140170;27;20047;-89
2021/12/15 02:30:56;;;;;;;39.58;19.77;;;;;;;;;;5123117;27;20093;-88
2021/12/15 02:33:43;;;;;;;43.22;19.67;;;;;;;;;;5123937;27;20042;-89
2021/12/15 02:38:55;;;;;;;42.88;20.02;;;10.10;99.90;;;;;;5140160;27;20042;-89
2021/12/15 02:41:23;;;;;;;39.10;19.15;;;10.10;99.90;;;;;;5123028;27;20081;-88
2021/12/15 02:43:53;;;;;;;41.58;19.67;;;10.00;99.90;;;;;;5140525;27;20099;-88
2021/12/15 02:46:20;;;;;;;41.97;21.50;;;;;;;;;;5122517;27;20092;-88
2021/12/15 02:48:46;;;;;;;39.20;20.67;;;;;;;;;;5122836;27;20035;-88
2021/12/15 02:51:13;;;;;;;46.80;22.42;;;;;;;;;;5140061;27;20106;-89
2021/12/15 02:53:39;;;;;;;45.47;19.90;;;;;;;;;;5123303;27;20065;-88
2021/12/15 02:56:07;;;;;;;42.83;19.95;;;;;;;;;;5122447;27;20039;-88
2021/12/15 02:58:35;;;;;;;47.65;19.75;;;;;;;;;;5122853;27;20034;-88
2021/12/15 03:01:12;;;;;;;45.15;17.58;;;10.10;99.90;;;;;;5122232;27;20056;-89
2021/12/15 03:06:23;;;;;;;42.42;18.73;;;;;;;;;;5139835;27;20103;-88
2021/12/15 03:09:10;;;;;;;46.38;20.63;;;;;;;;;;5123201;27;20062;-88
2021/12/15 03:17:06;;;;;;;44.85;21.02;;;;;;;;;;5139210;27;20123;-88
2021/12/15 03:19:32;;;;;;;47.00;20.17;;;;;;;;;;5123194;27;20047;-89
2021/12/15 03:21:58;;;;;;;43.20;20.05;;;;;;;;;;5123287;27;20443;-89
2021/12/15 03:24:26;;;;;;;52.15;22.52;;;10.00;99.90;;;;;;5122377;27;20045;-89
2021/12/15 03:27:06;;;;;;;42.45;19.08;;;9.80;99.90;;;;;;5122773;27;20505;-88
2021/12/15 03:35:19;;;;;;;37.80;21.42;;;10.10;99.90;;;;;;5139409;27;20468;-89
2021/12/15 03:37:47;;;;;;;50.72;22.23;;;;;;;;;;5139836;27;20053;-88
2021/12/15 03:40:20;;;;;;;35.88;19.00;;;;;;;;;;5121861;27;20406;-89
2021/12/15 03:42:48;;;;;;;40.13;19.75;;;;;;;;;;5138796;27;20178;-88
2021/12/15 03:45:17;;;;;;;42.40;21.80;;;;;;;;;;5121989;27;20043;-88
2021/12/15 03:47:45;;;;;;;47.22;21.88;;;;;;;;;;5138876;27;20082;-88
2021/12/15 03:50:13;;;;;;;49.25;21.40;;;;;;;;;;5121255;27;20046;-88
2021/12/15 03:52:39;;;;;;;38.28;21.83;;;;;;;;;;5138616;27;20065;-88
2021/12/15 03:55:06;;;;;;;42.05;22.38;;;;;;;;;;5121238;27;20106;-88
2021/12/15 03:57:32;;;;;;;41.15;19.92;;;;;;;;;;5122023;27;20491;-88
2021/12/15 03:59:58;;;;;;;40.92;21.48;;;;;;;;;;5122316;27;20375;-88
2021/12/15 04:02:25;;;;;;;49.05;21.30;;;;;;;;;;5121922;27;20080;-88
2021/12/15 04:04:52;;;;;;;43.47;20.73;;;;;;;;;;5123131;27;20068;-88
2021/12/15 04:07:20;;;;;;;42.83;21.73;;;10.00;99.90;;;;;;5122270;27;20099;-88
2021/12/15 04:09:47;;;;;;;36.92;20.58;;;10.00;99.90;;;;;;5122038;27;20044;-88
2021/12/15 04:12:13;;;;;;;36.08;19.38;;;;;;;;;;5121459;27;20419;-88
2021/12/15 04:14:54;;;;;;;32.90;18.65;;;;;;;;;;5121691;27;20491;-88
2021/12/15 04:17:30;;;;;;;46.55;19.73;;;;;;;;;;5138729;27;20050;-88
2021/12/15 04:19:59;;;;;;;37.63;19.48;;;;;;;;;;5139470;27;20054;-88
2021/12/15 04:22:25;;;;;;;42.38;20.75;;;;;;;;;;5157066;27;20042;-88
2021/12/15 04:24:52;;;;;;;36.13;17.25;;;;;;;;;;5121967;27;20042;-89
2021/12/15 04:27:18;;;;;;;40.72;20.42;;;10.00;99.90;;;;;;5121117;27;20054;-88
2021/12/15 04:29:46;;;;;;;37.47;19.02;;;;;;;;;;5137410;27;20130;-88
2021/12/15 04:32:16;;;;;;;47.55;20.30;;;;;;;;;;5138056;27;20046;-89
2021/12/15 04:34:42;;;;;;;39.30;20.52;;;;;;;;;;5120842;27;20490;-88
2021/12/15 04:37:08;;;;;;;46.35;21.65;;;;;;;;;;5138396;27;20445;-88
2021/12/15 04:39:34;;;;;;;35.72;19.15;;;;;;;;;;5122529;27;20057;-88
2021/12/15 04:42:01;;;;;;;41.50;19.95;;;;;;;;;;5122708;27;20473;-88
2021/12/15 04:44:29;;;;;;;31.25;17.55;;;;;;;;;;5122558;27;20034;-88
2021/12/15 04:47:04;;;;;;;36.53;18.42;;;10.00;99.90;;;;;;5122251;27;20035;-88
2021/12/15 04:49:37;;;;;;;39.00;19.80;;;10.10;99.90;;;;;;5122197;27;20110;-88
2021/12/15 04:52:03;;;;;;;38.80;18.98;;;;;;;;;;5122593;27;20035;-88
2021/12/15 04:54:30;;;;;;;40.13;19.77;;;;;;;;;;5138735;27;20039;-88
2021/12/15 04:56:57;;;;;;;36.45;18.60;;;;;;;;;;5121061;27;20034;-88
2021/12/15 04:59:23;;;;;;;41.30;18.70;;;;;;;;;;5122248;27;20050;-88
2021/12/15 05:01:49;;;;;;;37.22;19.00;;;;;;;;;;5121138;27;20061;-88
2021/12/15 05:04:16;;;;;;;34.50;19.98;;;;;;;;;;5121714;27;20125;-88
2021/12/15 05:06:42;;;;;;;38.08;17.90;;;;;;;;;;5120253;27;20050;-88
2021/12/15 05:09:09;;;;;;;36.25;18.77;;;;;;;;;;5120521;27;20068;-87
2021/12/15 05:11:35;;;;;;;43.05;19.77;;;;;;;;;;5121051;27;20042;-88
2021/12/15 05:14:01;;;;;;;36.15;18.33;;;;;;;;;;5119976;27;20097;-87
2021/12/15 05:16:27;;;;;;;37.08;19.17;;;;;;;;;;5137902;27;20070;-87
2021/12/15 05:18:54;;;;;;;39.75;19.08;;;;;;;;;;5121368;27;20407;-88
2021/12/15 05:21:22;;;;;;;37.50;18.40;;;;;;;;;;5120523;27;20426;-88
2021/12/15 05:23:54;;;;;;;33.38;17.00;;;;;;;;;;5121111;27;20061;-88
2021/12/15 05:26:21;;;;;;;33.70;18.02;;;;;;;;;;5121358;27;20034;-89
2021/12/15 05:28:47;;;;;;;36.67;18.90;;;;;;;;;;5120548;27;20499;-89
2021/12/15 05:31:13;;;;;;;44.75;20.40;;;;;;;;;;5120731;27;20062;-89
2021/12/15 05:33:39;;;;;;;39.47;18.35;;;;;;;;;;5120145;27;20054;-88
2021/12/15 05:36:05;;;;;;;40.25;19.70;;;;;;;;;;5121502;27;20447;-88
2021/12/15 05:38:31;;;;;;;35.42;19.38;;;;;;;;;;5138008;27;20076;-88
2021/12/15 05:40:59;;;;;;;37.92;19.95;;;;;;;;;;5138900;27;20046;-88
2021/12/15 05:43:25;;;;;;;35.50;17.73;;;;;;;;;;5141346;27;20072;-88
2021/12/15 05:45:52;;;;;;;38.92;20.00;;;;;;;;;;5141862;27;20402;-88
2021/12/15 05:48:19;;;;;;;39.35;20.30;;;;;;;;;;5124069;27;20045;-89
2021/12/15 05:50:46;;;;;;;39.53;18.58;;;;;;;;;;5123932;27;20039;-88
2021/12/15 05:53:12;;;;;;;47.42;19.58;;;;;;;;;;5124042;27;20506;-88
2021/12/15 05:55:38;;;;;;;28.80;14.02;;;;;;;;;;5123575;27;20138;-88
2021/12/15 05:58:05;;;;;;;41.63;18.92;;;;;;;;;;5123695;27;20067;-88
2021/12/15 06:00:35;;;;;;;42.05;17.25;;;10.10;99.90;;;;;;5123461;27;20051;-88
2021/12/15 06:03:02;;;;;;;50.65;20.88;;;;;;;;;;5158930;27;20518;-88
2021/12/15 06:05:28;;;;;;;42.80;20.08;;;;;;;;;;5123849;27;20043;-89
2021/12/15 06:07:54;;;;;;;39.65;19.92;;;;;;;;;;5140835;27;20483;-88
2021/12/15 06:10:22;;;;;;;44.15;19.90;;;;;;;;;;5140214;27;20424;-88
2021/12/15 06:12:50;;;;;;;43.05;18.67;;;10.10;99.90;;;;;;5141026;27;20046;-88
2021/12/15 06:15:21;;;;;;;42.60;20.45;;;;;;;;;;5124783;27;20059;-88
2021/12/15 06:17:52;;;;;;;40.47;18.08;;;;;;;;;;5141002;27;20495;-88
2021/12/15 06:20:18;;;;;;;42.05;18.92;;;;;;;;;;5123081;27;20042;-88
2021/12/15 06:22:45;;;;;;;46.80;19.58;;;;;;;;;;5124392;27;20045;-88
2021/12/15 06:25:12;;;;;;;41.33;19.50;;;;;;;;;;5124299;27;20058;-87
2021/12/15 06:27:40;;;;;;;33.42;17.15;;;;;;;;;;5140098;27;20117;-88
2021/12/15 06:30:08;;;;;;;38.42;19.48;;;10.00;99.90;;;;;;5140007;27;20521;-87
2021/12/15 06:32:34;;;;;;;34.20;16.85;;;;;;;;;;5124891;27;20042;-88
2021/12/15 06:35:00;;;;;;;47.40;19.42;;;;;;;;;;5140697;27;20507;-88
2021/12/15 06:37:27;;;;;;;35.30;18.88;;;;;;;;;;5140765;27;20035;-87
2021/12/15 06:39:53;;;;;;;48.13;18.77;;;;;;;;;;5123507;27;20043;-88
2021/12/15 06:42:19;;;;;;;45.65;19.15;;;;;;;;;;5123288;27;20483;-88
2021/12/15 06:44:46;;;;;;;35.70;18.40;;;;;;;;;;5139857;27;20085;-88
2021/12/15 06:58:11;;;;;;;37.88;17.60;;;;;;;;;;5140567;27;20123;-88
2021/12/15 07:00:48;;;;;;;37.25;19.05;;;10.10;99.90;;;;;;5118523;27;20057;-88
2021/12/15 07:03:16;;;;;;;36.00;18.10;;;10.00;99.90;;;;;;5117952;27;20043;-88
2021/12/15 07:05:42;;;;;;;30.58;15.50;;;;;;;;;;5136397;27;20049;-88
2021/12/15 07:08:09;;;;;;;36.20;17.40;;;10.20;99.90;;;;;;5136013;27;20039;-88
2021/12/15 07:10:39;;;;;;;41.22;17.48;;;10.10;99.90;;;;;;5119013;27;20053;-88
2021/12/15 07:13:05;;;;;;;34.60;16.55;;;;;;;;;;5118934;27;20437;-88
2021/12/15 07:15:33;;;;;;;32.42;15.73;;;;;;;;;;5119457;27;20047;-88
2021/12/15 07:18:03;;;;;;;35.00;17.92;;;;;;;;;;5118767;27;20043;-88
2021/12/15 07:20:40;;;;;;;39.58;17.05;;;;;;;;;;5118895;27;20475;-88
2021/12/15 07:23:17;;;;;;;38.65;17.20;;;10.10;99.90;;;;;;5118838;27;20128;-88
2021/12/15 07:25:46;;;;;;;30.73;16.48;;;10.00;99.90;;;;;;5118302;27;20043;-88
2021/12/15 07:28:12;;;;;;;36.50;16.30;;;;;;;;;;5118258;27;20506;-88
2021/12/15 07:30:38;;;;;;;32.88;15.43;;;;;;;;;;5118940;27;20043;-88
2021/12/15 07:33:05;;;;;;;44.90;16.88;;;;;;;;;;5118564;27;20035;-88
2021/12/15 07:35:31;;;;;;;25.85;15.38;;;;;;;;;;5135241;27;20047;-87
2021/12/15 07:37:57;;;;;;;48.63;14.60;;;;;;;;;;5135329;27;20039;-88
2021/12/15 07:40:25;;;;;;;36.88;15.25;;;;;;;;;;5118678;27;20123;-88
2021/12/15 07:43:06;;;;;;;28.85;14.13;;;;;;;;;;5117885;27;20052;-88
2021/12/15 07:45:43;;;;;;;27.80;13.85;;;;;;;;;;5135802;27;20103;-88
2021/12/15 07:48:10;;;;;;;34.75;14.90;;;;;;;;;;5118309;27;20079;-89
2021/12/15 07:50:38;;;;;;;23.75;12.70;;;;;;;;;;5118415;27;20429;-88
2021/12/15 07:53:05;;;;;;;24.45;13.38;;;;;;;;;;5118478;27;20097;-88
2021/12/15 07:55:32;;;;;;;27.83;12.52;;;;;;;;;;5117408;27;20126;-88
2021/12/15 07:57:58;;;;;;;30.77;13.82;;;;;;;;;;5135252;27;20085;-88
2021/12/15 08:00:25;;;;;;;25.35;12.85;;;;;;;;;;5118546;27;20051;-88
2021/12/15 08:02:51;;;;;;;27.33;12.13;;;;;;;;;;5119606;27;20043;-88
2021/12/15 08:05:18;;;;;;;21.00;11.73;;;;;;;;;;5118242;27;20070;-88
2021/12/15 08:07:44;;;;;;;29.58;12.27;;;;;;;;;;5118855;27;20399;-89
2021/12/15 08:10:11;;;;;;;26.13;11.27;;;;;;;;;;5137890;27;20118;-88
2021/12/15 08:12:38;;;;;;;26.65;12.23;;;;;;;;;;5119236;27;20043;-88
2021/12/15 08:15:07;;;;;;;19.75;11.30;;;;;;;;;;5119508;27;20043;-88
2021/12/15 08:17:33;;;;;;;26.63;10.48;;;;;;;;;;5137409;27;20488;-88
2021/12/15 08:19:59;;;;;;;24.33;10.98;;;;;;;;;;5120598;27;20070;-88
2021/12/15 08:22:25;;;;;;;22.13;12.30;;;;;;;;;;5136982;27;20104;-88
2021/12/15 08:24:51;;;;;;;21.63;10.13;;;;;;;;;;5119418;27;20106;-88
2021/12/15 08:27:17;;;;;;;20.77;9.77;;;;;;;;;;5136144;27;20079;-88
2021/12/15 08:29:43;;;;;;;17.85;9.45;;;;;;;;;;5118216;27;20483;-88
2021/12/15 08:32:09;;;;;;;24.80;11.65;;;;;;;;;;5134778;27;20039;-88
2021/12/15 08:34:35;;;;;;;25.48;10.82;;;;;;;;;;5119033;27;20039;-88
2021/12/15 08:37:02;;;;;;;26.00;11.38;;;;;;;;;;5118240;27;20050;-88
2021/12/15 08:39:28;;;;;;;24.33;10.95;;;;;;;;;;5117829;27;20548;-88
2021/12/15 08:41:54;;;;;;;19.92;12.43;;;;;;;;;;5134719;27;20578;-88
2021/12/15 08:44:20;;;;;;;20.90;11.02;;;;;;;;;;5134755;27;20051;-88
2021/12/15 08:46:47;;;;;;;39.97;12.98;;;;;;;;;;5135773;27;20080;-88
2021/12/15 08:49:16;;;;;;;36.08;13.02;;;;;;;;;;5134070;27;20035;-87
2021/12/15 08:51:43;;;;;;;20.00;10.95;;;9.90;99.90;;;;;;5135053;27;20510;-88
2021/12/15 08:54:14;;;;;;;21.73;10.52;;;9.70;99.90;;;;;;5117913;28;20070;-88
2021/12/15 08:56:40;;;;;;;23.35;11.27;;;;;;;;;;5134876;27;20043;-88
2021/12/15 08:59:07;;;;;;;30.00;11.60;;;;;;;;;;5117141;28;20039;-87
2021/12/15 09:01:33;;;;;;;28.55;11.25;;;;;;;;;;5116751;27;20059;-88
2021/12/15 09:03:59;;;;;;;25.73;11.05;;;;;;;;;;5117704;28;20047;-88
2021/12/15 09:06:25;;;;;;;22.80;9.02;;;;;;;;;;5134016;28;20054;-87
2021/12/15 09:08:52;;;;;;;30.60;12.13;;;;;;;;;;5117263;28;20077;-88
2021/12/15 09:11:19;;;;;;;24.15;9.93;;;;;;;;;;5134318;28;20049;-88
2021/12/15 09:13:47;;;;;;;25.98;12.43;;;;;;;;;;5135082;28;20077;-88
2021/12/15 09:16:13;;;;;;;26.67;10.43;;;;;;;;;;5118379;27;20047;-88
2021/12/15 09:18:40;;;;;;;25.17;12.52;;;;;;;;;;5121737;27;20046;-88
2021/12/15 09:21:07;;;;;;;30.25;11.95;;;;;;;;;;5120886;27;20047;-88
2021/12/15 09:23:33;;;;;;;32.17;13.10;;;;;;;;;;5137865;27;20043;-88
2021/12/15 09:25:59;;;;;;;15.80;9.85;;;;;;;;;;5120441;27;20042;-88
2021/12/15 09:28:26;;;;;;;21.30;11.43;;;;;;;;;;5120813;27;20047;-88
2021/12/15 09:30:52;;;;;;;23.52;11.30;;;;;;;;;;5138349;27;20123;-88
2021/12/15 09:33:21;;;;;;;22.48;11.45;;;;;;;;;;5121092;27;20035;-88
2021/12/15 09:35:47;;;;;;;24.75;12.20;;;10.00;99.90;;;;;;5121558;27;20054;-88
2021/12/15 09:38:19;;;;;;;22.30;10.88;;;10.10;99.90;;;;;;5121831;27;20360;-88
2021/12/15 09:40:45;;;;;;;22.85;10.20;;;;;;;;;;5120671;27;20051;-88
2021/12/15 09:43:12;;;;;;;24.85;10.70;;;;;;;;;;5119900;27;20039;-88
2021/12/15 10:04:35;;;;;;;15.63;7.70;;;;;;;;;;5059080;28;20201;-88
2021/12/15 10:07:23;;;;;;;14.73;7.53;;;;;;;;;;5059277;28;20061;-88
2021/12/15 10:18:33;;;;;;;11.77;6.57;;;10.30;99.90;;;;;;5058929;28;20382;-88
2021/12/15 10:21:00;;;;;;;16.38;7.10;;;10.10;99.90;;;;;;5055461;28;20054;-88
2021/12/15 10:23:34;;;;;;;13.27;7.07;;;;;;;;;;5041730;28;20044;-88
2021/12/15 10:26:01;;;;;;;15.55;6.50;;;;;;;;;;5099581;28;20104;-88
2021/12/15 10:28:29;;;;;;;11.48;5.90;;;10.10;99.90;;;;;;5099541;28;20380;-88
2021/12/15 10:30:59;;;;;;;13.07;5.45;;;;;;;;;;5116100;28;20093;-88
2021/12/15 10:33:42;;;;;;;15.88;6.13;;;;;;;;;;5116560;28;20047;-88
2021/12/15 10:36:11;;;;;;;16.75;6.93;;;;;;;;;;5116471;28;20445;-87
2021/12/15 10:38:42;;;;;;;9.77;5.80;;;;;;;;;;5115837;28;20473;-88
2021/12/15 10:41:11;;;;;;;10.30;5.70;;;;;;;;;;5117831;28;20047;-87
2021/12/15 10:43:43;;;;;;;15.68;5.95;;;;;;;;;;5118223;28;20050;-88
2021/12/15 10:46:22;;;;;;;11.38;5.20;;;;;;;;;;5099323;28;20480;-88
2021/12/15 10:48:50;;;;;;;12.07;5.60;;;;;;;;;;5099108;28;20058;-87
2021/12/15 10:51:21;;;;;;;11.82;6.13;;;;;;;;;;5116319;28;20031;-88
2021/12/15 10:53:47;;;;;;;17.63;5.70;;;;;;;;;;5116271;28;20155;-88
2021/12/15 10:56:17;;;;;;;15.90;5.63;;;10.30;99.90;;;;;;5099311;28;20117;-87
2021/12/15 10:58:53;;;;;;;14.98;5.82;;;10.30;99.90;;;;;;5116650;28;20140;-87
2021/12/15 11:01:49;;;;;;;9.25;5.20;;;10.60;99.90;;;;;;5107551;27;20134;-88
2021/12/15 11:04:32;;;;;;;9.63;5.63;;;10.30;99.90;;;;;;5021088;28;20053;-89
2021/12/15 11:07:01;;;;;;;17.00;6.25;;;;;;;;;;5021183;28;20048;-87
2021/12/15 11:09:34;;;;;;;11.70;5.50;;;10.50;99.90;;;;;;5021233;28;20409;-88
2021/12/15 11:12:25;;;;;;;8.98;4.95;;;10.40;99.90;;;;;;5021041;28;20041;-88
2021/12/15 11:15:02;;;;;;;14.85;6.63;;;;;;;;;;5020950;28;20086;-88
2021/12/15 11:17:32;;;;;;;11.77;5.85;;;10.40;99.90;;;;;;5037385;28;20162;-88
2021/12/15 11:20:04;;;;;;;13.18;5.78;;;;;;;;;;5037285;28;20119;-88
2021/12/15 11:22:49;;;;;;;11.38;6.00;;;10.50;99.90;;;;;;5021216;28;20052;-88
2021/12/15 11:25:29;;;;;;;13.68;6.18;;;;;;;;;;5020857;28;20088;-88
2021/12/15 11:27:58;;;;;;;6.82;5.07;;;10.40;99.90;;;;;;5020698;28;20053;-87
2021/12/15 11:30:34;;;;;;;8.00;5.05;;;10.40;99.90;;;;;;5020715;28;20456;-87
2021/12/15 11:33:05;;;;;;;11.30;6.03;;;10.40;99.90;;;;;;5020803;28;20136;-88
2021/12/15 11:35:34;;;;;;;13.95;7.07;;;;;;;;;;5021045;28;20395;-88
2021/12/15 11:38:26;;;;;;;17.60;6.38;;;10.40;99.90;;;;;;5037855;28;20052;-87
2021/12/15 11:41:19;;;;;;;16.65;6.22;;;10.60;99.90;;;;;;5011259;28;20048;-87
2021/12/15 11:43:45;;;;;;;9.77;5.15;;;;;;;;;;5077934;28;20145;-86
2021/12/15 11:46:32;;;;;;;8.38;4.75;;;10.40;99.90;;;;;;5077127;28;20205;-87
2021/12/15 11:49:02;;;;;;;15.50;5.25;;;10.30;99.90;;;;;;5059713;28;20083;-87
2021/12/15 11:51:39;;;;;;;11.75;5.35;;;;;;;;;;5076713;28;20067;-87
2021/12/15 11:54:16;;;;;;;12.80;4.90;;;10.50;99.90;;;;;;5076747;28;20052;-87
2021/12/15 11:56:42;;;;;;;12.98;5.35;;;;;;;;;;5076447;28;20544;-87
2021/12/15 11:59:14;;;;;;;15.45;4.90;;;;;;;;;;5060925;28;20063;-86
2021/12/15 12:01:53;;;;;;;12.55;3.70;;;;;;;;;;5068989;28;20064;-87
2021/12/15 12:04:19;;;;;;;7.35;4.38;;;;;;;;;;5074132;28;20052;-88
2021/12/15 12:06:46;;;;;;;7.85;4.22;;;;;;;;;;5041470;28;20082;-87
2021/12/15 12:09:12;;;;;;;14.15;4.15;;;;;;;;;;5041163;28;20164;-87
2021/12/15 12:11:41;;;;;;;20.45;4.68;;;;;;;;;;5042691;28;20068;-86
2021/12/15 12:14:17;;;;;;;10.18;3.85;;;;;;;;;;5047126;28;20044;-86
2021/12/15 12:16:44;;;;;;;8.07;3.70;;;10.30;99.90;;;;;;5046651;28;20055;-87
2021/12/15 12:19:13;;;;;;;10.18;4.18;;;;;;;;;;5122654;28;20069;-86
2021/12/15 12:21:39;;;;;;;8.80;3.67;;;;;;;;;;5107004;28;20102;-87
2021/12/15 12:24:06;;;;;;;7.57;3.75;;;;;;;;;;5118103;28;20043;-87
2021/12/15 12:26:34;;;;;;;7.07;4.03;;;;;;;;;;5115705;28;20062;-87
2021/12/15 12:29:01;;;;;;;7.63;3.20;;;;;;;;;;5099473;28;20043;-87
2021/12/15 12:31:28;;;;;;;7.90;2.80;;;;;;;;;;5101711;28;20036;-88
2021/12/15 12:33:54;;;;;;;4.05;2.42;;;10.30;99.90;;;;;;5099707;28;20062;-87
2021/12/15 12:36:31;;;;;;;6.30;2.15;;;;;;;;;;5098397;28;20043;-87
2021/12/15 12:39:01;;;;;;;3.85;2.33;;;10.40;99.90;;;;;;5114978;28;20487;-88
2021/12/15 12:41:29;;;;;;;10.77;2.97;;;;;;;;;;5097970;28;20046;-87
2021/12/15 12:43:59;;;;;;;4.47;2.60;;;;;;;;;;5098209;28;20101;-88
2021/12/15 12:46:37;;;;;;;5.30;2.70;;;10.50;99.90;;;;;;5097728;28;20058;-88
2021/12/15 13:00:29;;;;;;;3.35;2.47;;;;;;;;;;5112997;28;20078;-87
2021/12/15 13:03:12;;;;;;;8.55;2.97;;;10.10;99.90;;;;;;5133982;27;20095;-88
2021/12/15 13:05:46;;;;;;;7.45;2.28;;;;;;;;;;5117173;28;20039;-88
2021/12/15 13:08:34;;;;;;;3.75;2.22;;;10.10;99.90;;;;;;5135664;28;20043;-88
2021/12/15 13:11:15;;;;;;;2.10;1.88;;;;;;;;;;5134456;28;20532;-88
2021/12/15 13:13:54;;;;;;;10.40;2.08;;;;;;;;;;5117018;28;20096;-88
2021/12/15 13:16:23;;;;;;;7.00;2.20;;;;;;;;;;5134637;28;20051;-88
2021/12/15 13:18:55;;;;;;;4.30;1.70;;;;;;;;;;5117528;28;20039;-88
2021/12/15 13:21:39;;;;;;;5.90;2.35;;;;;;;;;;5134207;28;20055;-87
2021/12/15 13:24:10;;;;;;;3.65;2.35;;;;;;;;;;5116790;28;20372;-88
2021/12/15 13:29:40;;;;;;;2.90;1.60;;;;;;;;;;5133637;28;20049;-88
2021/12/15 13:32:06;;;;;;;5.07;1.70;;;;;;;;;;5134051;28;20415;-88
2021/12/15 13:34:37;;;;;;;10.20;2.22;;;;;;;;;;5134009;28;20042;-88
2021/12/15 13:37:07;;;;;;;4.30;1.88;;;;;;;;;;5117768;28;20062;-88
2021/12/15 13:39:45;;;;;;;6.18;1.77;;;10.20;99.90;;;;;;5116999;28;20045;-88
2021/12/15 13:42:15;;;;;;;2.08;1.63;;;;;;;;;;5117233;28;20043;-88
2021/12/15 13:44:45;;;;;;;2.50;1.65;;;;;;;;;;5133890;28;20131;-88
2021/12/15 13:47:20;;;;;;;8.65;1.65;;;;;;;;;;5133813;28;20040;-88
2021/12/15 13:50:00;;;;;;;5.45;2.03;;;10.10;99.90;;;;;;5134120;28;20149;-87
2021/12/15 13:52:34;;;;;;;6.32;2.03;;;9.90;99.90;;;;;;5134213;28;20039;-87
2021/12/15 13:55:03;;;;;;;5.43;1.75;;;;;;;;;;5116801;28;20035;-88
2021/12/15 13:57:32;;;;;;;4.60;1.80;;;;;;;;;;5116686;28;20047;-88
2021/12/15 14:00:05;;;;;;;4.55;2.47;;;9.70;99.90;;;;;;5115933;28;20047;-88
2021/12/15 14:02:55;;;;;;;3.00;1.70;;;9.80;99.90;;;;;;5116250;28;20120;-88
2021/12/15 14:05:30;;;;;;;6.05;2.75;;;;;;;;;;5107011;27;20108;-88
2021/12/15 14:08:02;;;;;;;1.63;1.52;;;;;;;;;;5137872;27;20078;-87
2021/12/15 14:10:28;;;;;;;2.75;2.20;;;;;;;;;;5137927;27;20072;-87
2021/12/15 14:12:57;;;;;;;2.25;1.70;;;;;;;;;;5119653;27;20047;-88
2021/12/15 14:15:26;;;;;;;4.05;2.63;;;;;;;;;;5120585;27;20043;-88
2021/12/15 14:18:03;;;;;;;3.03;2.03;;;;;;;;;;5119699;27;20096;-88
2021/12/15 14:20:30;;;;;;;5.25;2.00;;;;;;;;;;5120056;27;20039;-87
2021/12/15 14:23:01;;;;;;;5.68;2.45;;;9.70;99.90;;;;;;5121019;27;20046;-87
2021/12/15 14:25:27;;;;;;;3.50;1.75;;;;;;;;;;5120575;27;20126;-88
2021/12/15 14:27:54;;;;;;;3.25;1.70;;;;;;;;;;5120347;27;20502;-88
2021/12/15 14:30:23;;;;;;;2.42;1.75;;;;;;;;;;5119856;27;20047;-88
2021/12/15 14:32:49;;;;;;;6.72;1.63;;;;;;;;;;5119681;27;20051;-88
2021/12/15 14:35:18;;;;;;;2.63;1.75;;;;;;;;;;5119501;27;20503;-88
2021/12/15 14:37:44;;;;;;;2.65;1.58;;;;;;;;;;5119810;27;20111;-88
2021/12/15 14:40:11;;;;;;;4.00;1.40;;;;;;;;;;5119893;27;20072;-88
2021/12/15 14:42:41;;;;;;;4.45;2.22;;;;;;;;;;5121219;27;20043;-88
2021/12/15 14:45:09;;;;;;;3.97;1.38;;;;;;;;;;5121132;27;20130;-88
2021/12/15 14:47:36;;;;;;;2.33;1.80;;;;;;;;;;5120657;27;20062;-88
2021/12/15 14:50:17;;;;;;;7.75;2.55;;;;;;;;;;5136766;27;20407;-88
2021/12/15 14:52:44;;;;;;;3.33;1.92;;;;;;;;;;5136864;27;20133;-88
2021/12/15 14:55:31;;;;;;;2.88;1.73;;;;;;;;;;5119317;27;20039;-88
2021/12/15 14:57:58;;;;;;;2.30;2.08;;;;;;;;;;5136491;27;20054;-88
2021/12/15 15:00:29;;;;;;;6.20;1.75;;;;;;;;;;5137310;27;20499;-88
2021/12/15 15:02:59;;;;;;;4.03;1.92;;;;;;;;;;5155613;27;20051;-88
2021/12/15 15:05:25;;;;;;;3.90;1.40;;;;;;;;;;5122918;27;20452;-88
2021/12/15 15:08:02;;;;;;;2.95;2.00;;;;;;;;;;5139796;27;20045;-88
2021/12/15 15:10:30;;;;;;;3.83;1.60;;;;;;;;;;5158203;27;20042;-88
2021/12/15 15:12:56;;;;;;;3.55;1.85;;;;;;;;;;5138929;27;20042;-87
2021/12/15 15:15:26;;;;;;;1.95;1.67;;;;;;;;;;5158181;27;20046;-87
2021/12/15 15:18:06;;;;;;;2.55;1.65;;;;;;;;;;5159179;27;20061;-87
2021/12/15 15:20:37;;;;;;;2.17;1.80;;;;;;;;;;5140681;27;20050;-87
2021/12/15 15:23:05;;;;;;;6.45;1.80;;;;;;;;;;5123253;27;20058;-87
2021/12/15 15:25:33;;;;;;;2.80;1.98;;;;;;;;;;5159563;27;20038;-87
2021/12/15 15:28:03;;;;;;;4.35;1.80;;;;;;;;;;5122321;27;20069;-87
2021/12/15 15:30:31;;;;;;;7.43;2.30;;;;;;;;;;5157604;27;20491;-87
2021/12/15 15:33:01;;;;;;;4.25;1.40;;;;;;;;;;5157615;27;20035;-87